Stations météo

réclame
Mon MeteoGroup
Gladhammar, Suède (2559): Température de l'air & dewpoint: 11.02.2019 13:00:00 - 17.02.2019 13:00:00 (CET)Gladhammar, Suède (2559): Vitesse du vent & gusts: 11.02.2019 13:00:00 - 17.02.2019 13:00:00 (CET)Gladhammar, Suède (2559): Direction du vent: 11.02.2019 13:00:00 - 17.02.2019 13:00:00 (CET)Gladhammar, Suède (2559): visibility: 11.02.2019 13:00:00 - 17.02.2019 13:00:00 (CET)Gladhammar, Suède (2559): Quantités de précipitations: 11.02.2019 13:00:00 - 17.02.2019 13:00:00 (CET)
Date & Time tt [°C] td [°C] ff [km/h] ff [knt] fx [km/h] fx [knt] dd vv [km] rr [mm]
17.02.2019 13:00:00 3,4 3,3 3 1 11 6 SE 1,7 0,2
17.02.2019 12:00:00 3,8 3,5 6 3 12 6 E 4,5 0,6
17.02.2019 11:00:00 4,5 4,2 8 4 11 6 E 4,1 0,1
17.02.2019 10:00:00 5,9 5,3 0 0 4 2 N 7 0,1
17.02.2019 09:00:00 5,9 5,2 3 2 11 6 W 3,4 0,0
17.02.2019 08:00:00 5,8 4,4 4 2 7 4 W 18 0,0
17.02.2019 07:00:00 6,2 4,7 0 0 8 4 N 16 0,0
17.02.2019 06:00:00 6,4 5,0 3 2 16 9 WNW 13 0,0
17.02.2019 05:00:00 6,7 5,0 7 4 14 8 W 13 0,0
17.02.2019 04:00:00 6,9 5,1 4 2 13 7 WNW 13 0,0
17.02.2019 03:00:00 7,2 5,2 7 4 17 9 WNW 13 0,0
17.02.2019 02:00:00 7,4 5,0 8 5 24 13 W 13 0,0
17.02.2019 01:00:00 7,4 4,5 7 4 16 9 W 15 0,0
17.02.2019 00:00:00 7,6 4,4 8 5 21 11 W 14 0,0
16.02.2019 23:00:00 7,8 4,2 11 6 27 15 W 14 0,0
16.02.2019 22:00:00 7,9 4,1 13 7 31 17 W 15 0,0
16.02.2019 21:00:00 7,9 3,6 13 7 35 19 W 18 0,0
16.02.2019 20:00:00 7,9 3,2 20 11 38 21 W 22 0,0
16.02.2019 19:00:00 8,8 2,6 16 8 33 18 W 45 0,0
16.02.2019 18:00:00 8,8 1,0 10 5 20 11 SW 50 0,0
16.02.2019 17:00:00 9,7 0,0 9 5 23 12 W 50 0,0
16.02.2019 16:00:00 - - - - - - - - -
16.02.2019 15:00:00 12,2 -0,3 15 8 41 22 WSW 48 0,0
16.02.2019 14:00:00 12,8 -1,2 13 7 35 19 SW 47 0,0
16.02.2019 13:00:00 13,2 -1,9 15 8 43 23 WSW 44 0,0
16.02.2019 12:00:00 12,9 -1,4 15 8 29 15 WSW 37 0,0
16.02.2019 11:00:00 10,8 -1,3 16 8 35 19 SW 41 0,0
16.02.2019 10:00:00 8,6 -2,1 16 9 27 15 SW 42 0,0
16.02.2019 09:00:00 6,4 -1,7 11 6 26 14 SW 37 0,0
16.02.2019 08:00:00 5,0 -1,7 13 7 24 13 SW 38 0,0
16.02.2019 07:00:00 4,1 -2,5 8 5 16 8 SW 50 0,0
16.02.2019 06:00:00 4,0 -2,6 7 4 17 9 SW 50 0,0
16.02.2019 05:00:00 4,1 -2,5 8 5 17 9 SW 48 0,0
16.02.2019 04:00:00 4,2 -2,4 9 5 21 11 SW 37 0,0
16.02.2019 03:00:00 4,2 -2,0 8 4 16 8 SW 24 0,0
16.02.2019 02:00:00 3,9 -1,1 9 5 16 9 SW 20 0,0
16.02.2019 01:00:00 4,5 -1,5 8 4 18 10 WSW 41 0,0
16.02.2019 00:00:00 4,9 -1,6 7 4 21 12 SW 50 0,0
15.02.2019 23:00:00 5,2 -1,5 10 5 22 12 WSW 50 0,0
15.02.2019 22:00:00 5,6 -1,1 10 5 24 13 WSW 50 0,0
15.02.2019 21:00:00 5,9 -0,6 13 7 25 14 WSW 50 0,0
15.02.2019 20:00:00 6,3 -0,4 9 5 18 10 W 50 0,0
15.02.2019 19:00:00 6,2 -0,5 7 4 23 12 W 50 0,0
15.02.2019 18:00:00 6,4 0,1 13 7 24 13 W 50 0,0
15.02.2019 17:00:00 7,7 0,4 14 8 29 15 WSW 50 0,0
15.02.2019 16:00:00 9,3 1,7 10 5 21 12 WSW 50 0,0
15.02.2019 15:00:00 9,9 3,0 13 7 24 13 WSW 50 0,0
15.02.2019 14:00:00 10,0 3,7 10 6 23 12 WSW 50 0,0
15.02.2019 13:00:00 9,8 4,6 10 6 23 12 SW 50 0,0
15.02.2019 12:00:00 8,7 4,9 12 7 22 12 WSW 50 0,0
15.02.2019 11:00:00 8,5 4,7 7 4 24 13 W 49 0,0
15.02.2019 10:00:00 7,0 4,3 10 5 17 9 W 50 0,0
15.02.2019 09:00:00 5,8 4,1 8 4 17 9 WSW 50 0,0
15.02.2019 08:00:00 5,5 4,0 6 4 21 11 W 50 0,0
15.02.2019 07:00:00 5,8 4,1 13 7 23 13 W 50 0,0
15.02.2019 06:00:00 5,1 3,8 7 4 21 11 W 48 0,0
15.02.2019 05:00:00 5,2 3,5 6 4 20 11 W 37 0,0
15.02.2019 04:00:00 5,5 3,7 9 5 23 12 WSW 37 0,0
15.02.2019 03:00:00 5,7 3,5 12 6 25 14 W 38 0,0
15.02.2019 02:00:00 5,6 3,4 10 5 22 12 W 24 0,0
15.02.2019 01:00:00 5,3 3,1 9 5 31 17 W 24 0,0
15.02.2019 00:00:00 5,4 2,9 14 8 33 18 W 25 0,0
14.02.2019 23:00:00 5,0 2,5 13 7 32 17 W 25 0,0
14.02.2019 22:00:00 5,2 2,5 15 8 32 17 W 22 0,0
14.02.2019 21:00:00 5,6 2,6 18 10 32 18 W 26 0,0
14.02.2019 20:00:00 6,1 2,9 15 8 35 19 W 33 0,0
14.02.2019 19:00:00 6,5 3,3 16 9 39 21 W 42 0,0
14.02.2019 18:00:00 7,1 3,7 16 9 32 18 W 44 0,0
14.02.2019 17:00:00 7,2 3,8 19 10 38 20 W 48 0,0
14.02.2019 16:00:00 7,5 4,1 17 9 33 18 W 39 0,0
14.02.2019 15:00:00 7,6 4,2 20 11 42 23 W 43 0,0
14.02.2019 14:00:00 7,8 4,2 19 11 42 23 W 49 0,0
14.02.2019 13:00:00 7,9 4,1 19 10 36 20 W 50 0,0
14.02.2019 12:00:00 8,1 4,1 15 8 33 18 W 50 0,0
14.02.2019 11:00:00 7,3 4,4 8 4 22 12 WSW 50 0,0
14.02.2019 10:00:00 6,2 4,2 10 6 21 11 WSW 50 0,0
14.02.2019 09:00:00 5,4 3,7 10 5 24 13 W 50 0,0
14.02.2019 08:00:00 4,9 3,6 12 7 24 13 WSW 50 0,0
14.02.2019 07:00:00 3,1 2,4 7 4 13 7 WSW 19 0,0
14.02.2019 06:00:00 3,1 1,6 0 0 16 8 N 14 0,0
14.02.2019 05:00:00 2,9 1,3 7 4 19 10 W 13 0,0
14.02.2019 04:00:00 2,7 0,1 11 6 29 16 W 12 0,0
14.02.2019 03:00:00 2,5 -1,3 13 7 24 13 W 15 0,0
14.02.2019 02:00:00 0,1 -2,0 8 4 14 8 W 16 0,0
14.02.2019 01:00:00 -1,0 -2,6 3 2 8 4 WSW 17 0,0
14.02.2019 00:00:00 -0,1 -2,3 0 0 8 4 N 18 0,0
13.02.2019 23:00:00 3,4 -2,1 3 2 12 7 W 22 0,0
13.02.2019 22:00:00 4,7 -1,7 7 4 18 10 W 25 0,0
13.02.2019 21:00:00 4,9 -1,3 11 6 19 10 W 29 0,0
13.02.2019 20:00:00 5,2 -1,1 13 7 23 12 W 45 0,0
13.02.2019 19:00:00 5,6 -1,3 9 5 19 11 W 48 0,0
13.02.2019 18:00:00 5,9 -1,3 6 4 19 10 W 47 0,0
13.02.2019 17:00:00 7,4 -0,8 9 5 29 16 W 50 0,0
13.02.2019 16:00:00 9,5 -0,1 11 6 26 14 W 50 0,0
13.02.2019 15:00:00 8,8 0,3 10 5 33 18 WNW 50 0,0
13.02.2019 14:00:00 9,7 0,3 17 9 37 20 WNW 41 0,0
13.02.2019 13:00:00 9,8 0,9 14 8 40 21 WNW 30 0,0
13.02.2019 12:00:00 9,1 0,5 12 7 48 26 WNW 46 0,0
13.02.2019 11:00:00 9,1 0,8 16 9 43 23 WNW 33 0,0
13.02.2019 10:00:00 8,5 0,9 18 10 48 26 WNW 29 0,0
13.02.2019 09:00:00 7,3 1,2 18 10 42 23 W 34 0,0
13.02.2019 08:00:00 6,3 1,4 21 11 42 23 W 43 0,0
13.02.2019 07:00:00 6,0 1,9 19 11 40 21 W 46 0,0
13.02.2019 06:00:00 5,2 2,7 16 9 35 19 W 50 0,0
13.02.2019 05:00:00 4,5 2,7 19 10 44 24 W 50 0,0
13.02.2019 04:00:00 4,0 2,5 21 11 54 29 WSW 50 0,0
13.02.2019 03:00:00 2,6 1,6 13 7 29 16 WSW 50 0,0
13.02.2019 02:00:00 1,2 0,2 14 8 29 16 SW 50 0,0
13.02.2019 01:00:00 0,4 0,0 14 7 25 13 SSW 28 0,2
13.02.2019 00:00:00 -0,3 -0,9 10 6 22 12 SSW 2,8 0,5
12.02.2019 23:00:00 - - - - 23 12 - - -
12.02.2019 22:00:00 1,3 -5,4 10 5 26 14 SW 50 0,0
12.02.2019 21:00:00 0,8 -6,3 11 6 25 14 WSW 50 0,0
12.02.2019 20:00:00 0,0 -7,3 8 5 14 8 WSW 50 0,0
12.02.2019 19:00:00 -0,8 -7,4 5 3 12 7 SW 50 0,0
12.02.2019 18:00:00 -0,3 -7,1 5 3 13 7 SW 50 0,0
12.02.2019 17:00:00 0,8 -7,5 6 3 27 14 W 50 0,0
12.02.2019 16:00:00 2,7 -7,2 11 6 23 12 W 50 0,0
12.02.2019 15:00:00 2,7 -7,2 12 7 30 16 WNW 50 0,0
12.02.2019 14:00:00 3,0 -6,9 14 7 32 17 WNW 50 0,0
12.02.2019 13:00:00 2,8 -5,6 14 8 29 16 WNW 40 0,0
12.02.2019 12:00:00 2,5 -5,6 13 7 29 16 WNW 50 0,0
12.02.2019 11:00:00 1,8 -5,8 11 6 29 16 WNW 43 0,0
12.02.2019 10:00:00 1,1 -5,4 10 5 27 15 NW 41 0,0
12.02.2019 09:00:00 -0,4 -5,4 11 6 24 13 NW 50 0,0
12.02.2019 08:00:00 -2,0 -5,7 8 5 20 11 WNW 50 0,0
12.02.2019 07:00:00 -2,0 -5,7 11 6 26 14 NW 50 0,0
12.02.2019 06:00:00 -1,7 -5,4 14 7 31 17 NW 50 0,0
12.02.2019 05:00:00 -1,4 -5,1 15 8 30 16 NW 50 0,0
12.02.2019 04:00:00 -1,3 -5,2 13 7 27 15 NW 50 0,0
12.02.2019 03:00:00 -1,2 -5,4 11 6 27 14 NW 50 0,0
12.02.2019 02:00:00 -1,1 -5,3 14 8 29 16 NW 50 0,0
12.02.2019 01:00:00 -1,1 -5,1 11 6 27 15 NW 50 0,0
12.02.2019 00:00:00 -0,9 -5,3 10 5 27 14 NW 50 0,0
11.02.2019 23:00:00 -0,7 -5,1 11 6 30 16 NW 50 0,0
11.02.2019 22:00:00 -0,3 -4,9 15 8 30 16 NW 50 0,0
11.02.2019 21:00:00 0,1 -4,5 17 9 39 21 NW 50 0,0
11.02.2019 20:00:00 0,3 -4,5 12 6 29 16 WNW 50 0,0
11.02.2019 19:00:00 0,5 -4,3 13 7 35 19 NW 50 0,0
11.02.2019 18:00:00 1,0 -3,1 15 8 28 15 NW 50 0,0
11.02.2019 17:00:00 1,2 -2,6 11 6 29 16 NW 50 0,0
11.02.2019 16:00:00 2,1 -2,2 11 6 34 19 NW 50 0,0
11.02.2019 15:00:00 2,2 -1,4 22 12 46 25 NW 50 0,0
11.02.2019 14:00:00 1,9 0,1 16 9 33 18 NW 50 0,0
11.02.2019 13:00:00 2,3 0,8 18 10 35 19 NNW 35 0,0

tt = Température de l'air
td = dewpoint
ff = Vitesse du vent
fx = gusts
dd = Direction du vent
vv = visibility
rr = Quantités de précipitations

stations d'obs. à proximité